createdAt,value
2022-12-17T00:01:51.285Z,102011.72
2022-12-17T00:04:37.809Z,102002.22
2022-12-17T00:07:23.592Z,102006.47
2022-12-17T00:10:09.544Z,102002.97
2022-12-17T00:12:56.294Z,102009.88
2022-12-17T00:15:42.833Z,102013.28
2022-12-17T00:18:29.767Z,102013.28
2022-12-17T00:21:19.218Z,102019.31
2022-12-17T00:24:06.034Z,102026.19
2022-12-17T00:26:52.087Z,102031.34
2022-12-17T00:29:37.929Z,102033.94
2022-12-17T00:32:24.271Z,102036.53
2022-12-17T00:35:10.569Z,102035.72
2022-12-17T00:37:57.763Z,102027.97
2022-12-17T00:40:43.553Z,102037.44
2022-12-17T00:43:32.714Z,102045.16
2022-12-17T00:46:19.679Z,102040.88
2022-12-17T00:49:07.190Z,102042.59
2022-12-17T00:51:53.806Z,102048.59
2022-12-17T00:54:39.784Z,102042.63
2022-12-17T00:57:25.718Z,102046.91
2022-12-17T01:00:13.165Z,102047.81
2022-12-17T01:02:59.255Z,102046.94
2022-12-17T01:05:45.395Z,102049.53
2022-12-17T01:08:33.667Z,102049.53
2022-12-17T01:11:26.209Z,102046.09
2022-12-17T01:14:13.081Z,102055.56
2022-12-17T01:17:00.296Z,102064.97
2022-12-17T01:19:47.299Z,102062.41
2022-12-17T01:22:33.150Z,102059.88
2022-12-17T01:25:19.027Z,102071.06
2022-12-17T01:28:09.461Z,102065.91
2022-12-17T01:30:56.465Z,102072.78
2022-12-17T01:33:43.206Z,102072.78
2022-12-17T01:36:28.991Z,102071.09
2022-12-17T01:39:15.332Z,102077.09
2022-12-17T01:42:01.181Z,102073.66
2022-12-17T01:45:14.566Z,102076.22
2022-12-17T01:48:09.518Z,102078.75
2022-12-17T01:51:00.700Z,102086.50
2022-12-17T01:54:10.847Z,102087.34
2022-12-17T01:57:00.399Z,102091.66
2022-12-17T02:00:09.493Z,102094.25
2022-12-17T02:03:02.024Z,102094.25
2022-12-17T02:06:08.456Z,102094.19
2022-12-17T02:09:36.242Z,102092.50
2022-12-17T02:12:49.835Z,102091.63
2022-12-17T02:15:49.276Z,102090.72
2022-12-17T02:18:46.374Z,102095.03
2022-12-17T02:21:32.588Z,102097.63
2022-12-17T02:24:58.407Z,102099.28
2022-12-17T02:27:45.786Z,102106.13
2022-12-17T02:30:33.158Z,102109.56
2022-12-17T02:33:19.883Z,102109.53
2022-12-17T02:36:21.510Z,102114.66
2022-12-17T02:39:07.476Z,102117.22
2022-12-17T02:42:08.943Z,102107.69
2022-12-17T02:44:59.013Z,102118.88
2022-12-17T02:47:47.018Z,102127.47
2022-12-17T02:50:33.417Z,102119.72
2022-12-17T02:53:21.137Z,102115.41
2022-12-17T02:56:07.590Z,102115.38
2022-12-17T02:58:56.501Z,102114.50
2022-12-17T03:01:42.563Z,102109.34
2022-12-17T03:04:28.569Z,102117.81
2022-12-17T03:07:14.482Z,102118.63
2022-12-17T03:10:01.523Z,102128.03
2022-12-17T03:12:49.298Z,102133.19
2022-12-17T03:15:35.247Z,102139.13
2022-12-17T03:18:21.336Z,102137.44
2022-12-17T03:21:11.204Z,102135.69
2022-12-17T03:23:57.558Z,102131.41
2022-12-17T03:26:43.565Z,102140.84
2022-12-17T03:29:29.702Z,102135.66
2022-12-17T03:32:15.758Z,102137.38
2022-12-17T03:35:01.474Z,102140.84
2022-12-17T03:37:47.387Z,102144.28
2022-12-17T03:40:33.335Z,102146.84
2022-12-17T03:43:25.955Z,102150.28
2022-12-17T03:46:14.791Z,102133.94
2022-12-17T03:49:00.724Z,102142.59
2022-12-17T03:51:46.600Z,102135.69
2022-12-17T03:54:32.403Z,102133.13
2022-12-17T03:57:18.455Z,102133.13
2022-12-17T04:00:04.477Z,102135.72
2022-12-17T04:02:58.282Z,102126.28
2022-12-17T04:05:44.418Z,102136.56
2022-12-17T04:08:30.120Z,102142.56
2022-12-17T04:11:16.048Z,102139.13
2022-12-17T04:14:01.825Z,102140.03
2022-12-17T04:16:48.408Z,102139.13
2022-12-17T04:19:34.184Z,102140.03
2022-12-17T04:22:20.011Z,102155.44
2022-12-17T04:25:05.936Z,102162.28
2022-12-17T04:27:51.676Z,102169.13
2022-12-17T04:30:37.455Z,102171.72
2022-12-17T04:33:23.537Z,102170.88
2022-12-17T04:36:09.318Z,102171.72
2022-12-17T04:38:55.407Z,102176.91
2022-12-17T04:41:41.160Z,102185.47
2022-12-17T04:44:27.099Z,102179.50
2022-12-17T04:47:13.268Z,102191.50
2022-12-17T04:49:59.084Z,102191.50
2022-12-17T04:52:45.570Z,102196.66
2022-12-17T04:55:31.435Z,102194.09
2022-12-17T04:58:24.874Z,102191.53
2022-12-17T05:01:11.702Z,102191.50
2022-12-17T05:03:58.335Z,102189.75
2022-12-17T05:06:45.249Z,102189.69
2022-12-17T05:09:31.409Z,102186.16
2022-12-17T05:12:17.343Z,102191.22
2022-12-17T05:15:03.239Z,102191.16
2022-12-17T05:17:49.025Z,102185.03
2022-12-17T05:20:34.923Z,102192.72
2022-12-17T05:23:26.104Z,102191.81
2022-12-17T05:26:25.810Z,102186.69
2022-12-17T05:29:22.294Z,102193.53
2022-12-17T05:32:08.878Z,102193.53
2022-12-17T05:34:54.736Z,102194.41
2022-12-17T05:37:43.335Z,102189.22
2022-12-17T05:40:29.967Z,102180.63
2022-12-17T05:43:29.900Z,102188.28
2022-12-17T05:46:18.923Z,102199.38
2022-12-17T05:49:04.707Z,102196.78
2022-12-17T05:51:50.603Z,102203.66
2022-12-17T05:54:36.582Z,102212.19
2022-12-17T05:57:23.443Z,102219.91
2022-12-17T06:00:09.392Z,102209.50
2022-12-17T06:02:58.575Z,102215.50
2022-12-17T06:05:44.920Z,102218.91
2022-12-17T06:08:30.795Z,102221.50
2022-12-17T06:11:19.823Z,102217.25
2022-12-17T06:14:06.093Z,102221.50
2022-12-17T06:16:52.140Z,102217.19
2022-12-17T06:19:37.908Z,102224.03
2022-12-17T06:22:23.738Z,102222.28
2022-12-17T06:25:09.629Z,102230.91
2022-12-17T06:27:55.780Z,102224.84
2022-12-17T06:30:41.561Z,102222.25
2022-12-17T06:33:29.747Z,102226.59
2022-12-17T06:36:22.121Z,102236.91
2022-12-17T06:39:09.349Z,102234.34
2022-12-17T06:42:02.019Z,102238.63
2022-12-17T06:44:50.915Z,102243.78
2022-12-17T06:47:51.100Z,102242.03
2022-12-17T06:50:37.321Z,102245.47
2022-12-17T06:53:25.639Z,102246.38
2022-12-17T06:56:15.310Z,102243.75
2022-12-17T06:59:01.317Z,102244.63
2022-12-17T07:01:48.045Z,102244.66
2022-12-17T07:04:33.991Z,102253.25
2022-12-17T07:07:19.829Z,102251.53
2022-12-17T07:10:09.342Z,102258.41
2022-12-17T07:12:59.555Z,102260.94
2022-12-17T07:15:45.437Z,102263.47
2022-12-17T07:18:32.296Z,102278.94
2022-12-17T07:21:18.054Z,102278.09
2022-12-17T07:24:03.957Z,102287.50
2022-12-17T07:26:50.445Z,102287.44
2022-12-17T07:29:36.267Z,102296.78
2022-12-17T07:32:22.167Z,102296.72
2022-12-17T07:35:08.237Z,102289.03
2022-12-17T07:37:53.936Z,102290.03
2022-12-17T07:40:39.801Z,102299.38
2022-12-17T07:43:30.800Z,102300.28
2022-12-17T07:46:18.147Z,102314.81
2022-12-17T07:49:04.335Z,102316.53
2022-12-17T07:51:50.443Z,102324.25
2022-12-17T07:54:36.159Z,102324.25
2022-12-17T07:57:22.087Z,102327.59
2022-12-17T08:00:07.819Z,102319.03
2022-12-17T08:02:53.892Z,102325.06
2022-12-17T08:05:41.121Z,102329.44
2022-12-17T08:08:29.812Z,102328.56
2022-12-17T08:11:15.623Z,102342.28
2022-12-17T08:14:02.054Z,102341.47
2022-12-17T08:16:47.923Z,102342.38
2022-12-17T08:19:34.342Z,102353.56
2022-12-17T08:22:20.195Z,102357.09
2022-12-17T08:25:05.992Z,102362.16
2022-12-17T08:27:52.252Z,102360.44
2022-12-17T08:30:38.307Z,102360.38
2022-12-17T08:33:26.132Z,102362.94
2022-12-17T08:36:13.530Z,102355.31
2022-12-17T08:39:16.769Z,102355.22
2022-12-17T08:42:07.477Z,102354.31
2022-12-17T08:44:53.656Z,102359.53
2022-12-17T08:47:39.561Z,102358.72
2022-12-17T08:50:26.542Z,102353.59
2022-12-17T08:53:23.035Z,102348.47
2022-12-17T08:56:09.317Z,102356.97
2022-12-17T08:58:59.084Z,102372.41
2022-12-17T09:01:45.690Z,102378.38
2022-12-17T09:04:31.676Z,102378.34
2022-12-17T09:07:18.521Z,102385.19
2022-12-17T09:10:06.209Z,102388.59
2022-12-17T09:12:52.298Z,102380.00
2022-12-17T09:15:38.171Z,102389.34
2022-12-17T09:18:23.922Z,102393.56
2022-12-17T09:21:13.809Z,102390.09
2022-12-17T09:24:00.173Z,102379.81
2022-12-17T09:26:46.581Z,102399.66
2022-12-17T09:29:32.407Z,102403.13
2022-12-17T09:32:18.521Z,102415.06
2022-12-17T09:35:04.433Z,102419.25
2022-12-17T09:37:50.522Z,102421.75
2022-12-17T09:40:41.876Z,102418.34
2022-12-17T09:43:47.703Z,102420.06
2022-12-17T09:47:10.934Z,102420.00
2022-12-17T09:49:57.630Z,102417.38
2022-12-17T09:52:47.737Z,102412.25
2022-12-17T09:56:02.766Z,102413.22
2022-12-17T09:58:49.457Z,102419.28
2022-12-17T10:02:01.895Z,102414.13
2022-12-17T10:04:56.533Z,102423.56
2022-12-17T10:07:52.606Z,102425.31
2022-12-17T10:10:49.773Z,102431.38
2022-12-17T10:13:40.363Z,102431.38
2022-12-17T10:16:51.863Z,102433.97
2022-12-17T10:19:54.413Z,102431.47
2022-12-17T10:22:40.861Z,102427.97
2022-12-17T10:25:40.473Z,102432.25
2022-12-17T10:28:35.817Z,102428.00
2022-12-17T10:31:39.815Z,102425.56
2022-12-17T10:34:31.471Z,102422.22
2022-12-17T10:37:17.355Z,102423.97
2022-12-17T10:40:12.288Z,102419.75
2022-12-17T10:42:59.525Z,102424.94
2022-12-17T10:46:11.410Z,102428.34
2022-12-17T10:48:57.193Z,102425.75
2022-12-17T10:51:55.393Z,102430.94
2022-12-17T10:54:49.406Z,102433.56
2022-12-17T10:57:56.510Z,102435.25
2022-12-17T11:00:52.506Z,102441.16
2022-12-17T11:04:14.439Z,102441.09
2022-12-17T11:07:05.409Z,102433.41
2022-12-17T11:10:08.655Z,102435.16
2022-12-17T11:13:15.887Z,102436.88
2022-12-17T11:16:14.082Z,102453.09
2022-12-17T11:19:30.346Z,102458.22
2022-12-17T11:22:26.077Z,102452.28
2022-12-17T11:25:26.504Z,102455.75
2022-12-17T11:28:38.367Z,102445.44
2022-12-17T11:32:12.159Z,102439.41
2022-12-17T11:35:52.451Z,102426.66
2022-12-17T11:39:01.329Z,102427.66
2022-12-17T11:42:14.358Z,102429.41
2022-12-17T11:45:17.995Z,102430.38
2022-12-17T11:48:25.528Z,102422.75
2022-12-17T11:51:33.227Z,102425.31
2022-12-17T11:54:43.036Z,102420.16
2022-12-17T11:57:38.698Z,102427.84
2022-12-17T12:00:42.331Z,102426.88
2022-12-17T12:03:55.869Z,102419.97
2022-12-17T12:06:46.865Z,102428.56
2022-12-17T12:10:19.473Z,102403.56
2022-12-17T12:13:44.541Z,102407.94
2022-12-17T12:17:12.342Z,102416.53
2022-12-17T12:20:41.163Z,102412.22
2022-12-17T12:23:55.443Z,102413.13
2022-12-17T12:26:56.578Z,102413.19
2022-12-17T12:30:26.696Z,102416.66
2022-12-17T12:33:41.581Z,102409.91
2022-12-17T12:36:31.013Z,102414.19
2022-12-17T12:39:17.830Z,102409.94
2022-12-17T12:42:16.839Z,102407.34
2022-12-17T12:45:25.396Z,102391.88
2022-12-17T12:48:58.141Z,102403.84
2022-12-17T12:51:49.206Z,102397.88
2022-12-17T12:55:05.046Z,102393.59
2022-12-17T12:57:51.162Z,102397.91
2022-12-17T13:01:07.702Z,102391.06
2022-12-17T13:04:11.063Z,102394.41
2022-12-17T13:06:56.369Z,102399.44
2022-12-17T13:09:34.813Z,102399.38
2022-12-17T13:12:02.861Z,102398.44
2022-12-17T13:14:33.721Z,102389.75
2022-12-17T13:17:04.075Z,102399.28
2022-12-17T13:19:31.414Z,102400.91
2022-12-17T13:22:23.979Z,102402.59
2022-12-17T13:24:55.506Z,102406.91
2022-12-17T13:27:36.339Z,102401.78
2022-12-17T13:30:18.104Z,102408.59
2022-12-17T13:33:02.206Z,102413.59
2022-12-17T13:36:06.134Z,102404.13
2022-12-17T13:39:13.774Z,102402.44
2022-12-17T13:41:41.379Z,102400.66
2022-12-17T13:44:29.635Z,102399.69
2022-12-17T13:46:57.177Z,102394.53
2022-12-17T13:49:30.203Z,102393.69
2022-12-17T13:52:23.797Z,102402.34
2022-12-17T13:54:51.779Z,102399.75
2022-12-17T13:57:25.911Z,102400.63
2022-12-17T13:59:56.775Z,102392.00
2022-12-17T14:02:29.489Z,102398.00
2022-12-17T14:05:05.663Z,102386.72
2022-12-17T14:07:39.057Z,102402.22
2022-12-17T14:10:18.140Z,102403.94
2022-12-17T14:12:47.092Z,102399.69
2022-12-17T14:15:29.984Z,102401.38
2022-12-17T14:17:59.235Z,102408.19
2022-12-17T14:20:36.178Z,102403.00
2022-12-17T14:23:23.105Z,102407.22
2022-12-17T14:25:50.851Z,102415.66
2022-12-17T14:28:37.446Z,102412.97
2022-12-17T14:31:28.691Z,102408.56
2022-12-17T14:34:10.916Z,102423.09
2022-12-17T14:36:43.780Z,102423.09
2022-12-17T14:39:30.918Z,102424.00
2022-12-17T14:42:27.001Z,102437.72
2022-12-17T14:45:06.290Z,102435.09
2022-12-17T14:47:36.687Z,102437.47
2022-12-17T14:50:07.426Z,102433.00
2022-12-17T14:52:53.100Z,102416.53
2022-12-17T14:55:37.971Z,102434.47
2022-12-17T14:58:13.898Z,102438.72
2022-12-17T15:00:59.919Z,102424.91
2022-12-17T15:03:31.735Z,102423.22
2022-12-17T15:06:03.360Z,102427.66
2022-12-17T15:08:34.862Z,102442.19
2022-12-17T15:11:03.032Z,102436.19
2022-12-17T15:13:30.411Z,102447.31
2022-12-17T15:15:58.207Z,102447.22
2022-12-17T15:18:26.083Z,102445.50
2022-12-17T15:20:53.627Z,102452.28
2022-12-17T15:23:23.900Z,102447.84
2022-12-17T15:25:52.853Z,102455.44
2022-12-17T15:28:22.025Z,102461.34
2022-12-17T15:30:50.128Z,102461.22
2022-12-17T15:33:18.012Z,102459.38
2022-12-17T15:35:45.560Z,102471.22
2022-12-17T15:38:13.294Z,102474.50
2022-12-17T15:40:41.454Z,102479.50
2022-12-17T15:43:13.085Z,102485.38
2022-12-17T15:45:45.623Z,102484.41
2022-12-17T15:48:16.015Z,102482.59
2022-12-17T15:50:43.442Z,102484.22
2022-12-17T15:53:11.047Z,102480.69
2022-12-17T15:55:39.183Z,102484.94
2022-12-17T15:58:07.624Z,102489.22
2022-12-17T16:00:35.402Z,102492.66
2022-12-17T16:03:04.359Z,102488.38
2022-12-17T16:05:32.107Z,102479.78
2022-12-17T16:08:02.496Z,102483.16
2022-12-17T16:10:30.648Z,102488.22
2022-12-17T16:12:58.421Z,102485.59
2022-12-17T16:15:25.909Z,102487.31
2022-12-17T16:17:53.421Z,102499.38
2022-12-17T16:20:22.486Z,102490.78
2022-12-17T16:22:50.226Z,102495.03
2022-12-17T16:25:17.717Z,102497.56
2022-12-17T16:27:45.406Z,102498.31
2022-12-17T16:30:13.568Z,102500.88
2022-12-17T16:32:41.031Z,102503.47
2022-12-17T16:35:08.819Z,102502.56
2022-12-17T16:37:36.215Z,102500.13
2022-12-17T16:40:04.027Z,102499.31
2022-12-17T16:42:31.451Z,102499.38
2022-12-17T16:44:58.932Z,102504.59
2022-12-17T16:47:26.485Z,102504.59
2022-12-17T16:49:53.959Z,102496.94
2022-12-17T16:52:21.417Z,102500.31
2022-12-17T16:54:48.842Z,102491.75
2022-12-17T16:57:16.247Z,102486.66
2022-12-17T16:59:43.679Z,102493.34
2022-12-17T17:02:15.801Z,102499.22
2022-12-17T17:04:43.375Z,102498.25
2022-12-17T17:07:10.772Z,102504.31
2022-12-17T17:09:38.958Z,102506.88
2022-12-17T17:12:08.943Z,102503.44
2022-12-17T17:14:36.419Z,102504.28
2022-12-17T17:17:03.904Z,102508.47
2022-12-17T17:19:31.305Z,102512.78
2022-12-17T17:21:58.783Z,102504.25
2022-12-17T17:24:26.585Z,102514.41
2022-12-17T17:26:55.325Z,102514.28
2022-12-17T17:29:23.103Z,102511.72
2022-12-17T17:32:09.960Z,102513.22
2022-12-17T17:34:39.128Z,102511.44
2022-12-17T17:37:06.541Z,102510.56
2022-12-17T17:39:34.352Z,102514.81
2022-12-17T17:42:02.233Z,102519.19
2022-12-17T17:44:29.687Z,102515.91
2022-12-17T17:46:57.366Z,102525.31
2022-12-17T17:49:25.231Z,102521.78
2022-12-17T17:52:08.820Z,102525.19
2022-12-17T17:54:36.813Z,102521.72
2022-12-17T17:57:04.222Z,102534.50
2022-12-17T17:59:34.169Z,102532.59
2022-12-17T18:02:03.308Z,102536.72
2022-12-17T18:04:31.543Z,102534.06
2022-12-17T18:09:46.590Z,102531.31
2022-12-17T18:12:32.676Z,102545.88
2022-12-17T18:15:17.349Z,102535.47
2022-12-17T18:17:49.212Z,102544.81
2022-12-17T18:20:16.987Z,102542.13
2022-12-17T18:22:46.275Z,102539.50
2022-12-17T18:25:15.298Z,102547.91
2022-12-17T18:27:44.055Z,102549.63
2022-12-17T18:30:13.066Z,102548.91
2022-12-17T18:32:41.831Z,102547.25
2022-12-17T18:35:09.607Z,102544.72
2022-12-17T18:37:37.488Z,102544.72
2022-12-17T18:40:07.081Z,102549.84
2022-12-17T18:42:53.551Z,102541.25
2022-12-17T18:45:20.973Z,102539.44
2022-12-17T18:47:48.417Z,102534.38
2022-12-17T18:50:15.856Z,102540.41
2022-12-17T18:52:43.338Z,102540.34
2022-12-17T18:55:11.439Z,102543.56
2022-12-17T18:57:38.951Z,102539.03
2022-12-17T19:00:07.085Z,102539.78
2022-12-17T19:02:34.634Z,102538.13
2022-12-17T19:05:02.113Z,102543.25
2022-12-17T19:07:29.599Z,102544.66
2022-12-17T19:09:57.039Z,102553.91
2022-12-17T19:12:24.466Z,102537.44
2022-12-17T19:14:51.820Z,102546.69
2022-12-17T19:17:19.231Z,102543.22
2022-12-17T19:19:47.808Z,102548.28
2022-12-17T19:22:15.162Z,102549.97
2022-12-17T19:24:42.620Z,102552.59
2022-12-17T19:27:10.029Z,102564.63
2022-12-17T19:29:37.488Z,102559.34
2022-12-17T19:32:05.081Z,102570.13
2022-12-17T19:34:35.002Z,102573.22
2022-12-17T19:37:03.189Z,102574.56
2022-12-17T19:39:30.593Z,102576.00
2022-12-17T19:41:57.969Z,102584.31
2022-12-17T19:44:25.508Z,102575.66
2022-12-17T19:46:52.911Z,102567.16
2022-12-17T19:49:20.283Z,102569.88
2022-12-17T19:51:47.689Z,102570.75
2022-12-17T19:54:15.602Z,102562.97
2022-12-17T19:56:44.713Z,102575.72
2022-12-17T19:59:13.932Z,102577.22
2022-12-17T20:01:45.626Z,102586.50
2022-12-17T20:04:15.870Z,102587.25
2022-12-17T20:06:44.643Z,102582.84
2022-12-17T20:09:12.521Z,102590.69
2022-12-17T20:11:40.475Z,102589.06
2022-12-17T20:14:36.110Z,102584.91
2022-12-17T20:17:05.059Z,102588.34
2022-12-17T20:19:34.640Z,102603.66
2022-12-17T20:22:04.501Z,102603.59
2022-12-17T20:24:32.673Z,102598.59
2022-12-17T20:27:00.993Z,102609.59
2022-12-17T20:29:29.162Z,102617.19
2022-12-17T20:31:56.896Z,102612.84
2022-12-17T20:34:25.268Z,102619.66
2022-12-17T20:36:53.896Z,102622.22
2022-12-17T20:39:26.646Z,102607.72
2022-12-17T20:41:55.143Z,102600.16
2022-12-17T20:44:22.572Z,102597.69
2022-12-17T20:46:49.958Z,102592.69
2022-12-17T20:49:17.439Z,102590.28
2022-12-17T20:51:44.884Z,102586.06
2022-12-17T20:54:12.541Z,102581.09
2022-12-17T20:56:40.715Z,102581.97
2022-12-17T20:59:13.161Z,102586.13
2022-12-17T21:01:40.804Z,102580.91
2022-12-17T21:04:08.631Z,102587.69
2022-12-17T21:06:45.820Z,102586.81
2022-12-17T21:09:13.838Z,102581.44
2022-12-17T21:11:42.451Z,102577.91
2022-12-17T21:14:14.160Z,102576.16
2022-12-17T21:16:43.195Z,102579.50
2022-12-17T21:19:14.551Z,102576.16
2022-12-17T21:21:42.013Z,102571.09
2022-12-17T21:24:09.871Z,102577.97
2022-12-17T21:26:40.908Z,102575.44
2022-12-17T21:29:11.221Z,102586.44
2022-12-17T21:31:48.471Z,102603.44
2022-12-17T21:34:22.052Z,102612.84
2022-12-17T21:36:50.582Z,102614.59
2022-12-17T21:39:18.929Z,102611.16
2022-12-17T21:42:06.319Z,102620.47
2022-12-17T21:44:34.001Z,102613.44
2022-12-17T21:47:02.275Z,102626.19
2022-12-17T21:49:30.016Z,102620.19
2022-12-17T21:51:59.366Z,102621.13
2022-12-17T21:54:26.993Z,102624.59
2022-12-17T21:56:54.654Z,102620.28
2022-12-17T21:59:22.444Z,102621.88
2022-12-17T22:01:50.900Z,102631.19
2022-12-17T22:04:18.655Z,102632.75
2022-12-17T22:06:55.006Z,102634.31
2022-12-17T22:09:33.977Z,102630.78
2022-12-17T22:12:34.564Z,102632.47
2022-12-17T22:15:02.050Z,102636.59
2022-12-17T22:17:29.916Z,102632.94
2022-12-17T22:19:57.318Z,102629.38
2022-12-17T22:22:24.790Z,102628.28
2022-12-17T22:24:52.224Z,102622.94
2022-12-17T22:27:19.662Z,102624.50
2022-12-17T22:30:05.499Z,102632.91
2022-12-17T22:32:51.399Z,102631.16
2022-12-17T22:36:09.240Z,102635.34
2022-12-17T22:42:19.615Z,102637.84
2022-12-17T22:44:35.299Z,102632.56
2022-12-17T22:44:36.805Z,102621.34
2022-12-17T22:46:31.694Z,102627.88
2022-12-17T22:48:59.324Z,102625.22
2022-12-17T22:51:37.908Z,102616.56
2022-12-17T22:54:08.342Z,102622.41
2022-12-17T22:56:51.132Z,102623.97
2022-12-17T22:59:25.722Z,102625.69
2022-12-17T23:01:53.219Z,102628.91
2022-12-17T23:04:22.150Z,102633.09
2022-12-17T23:06:49.650Z,102634.59
2022-12-17T23:09:19.419Z,102627.72
2022-12-17T23:11:48.572Z,102630.97
2022-12-17T23:14:17.169Z,102632.53
2022-12-17T23:16:45.356Z,102618.84
2022-12-17T23:19:13.422Z,102617.06
2022-12-17T23:21:40.875Z,102620.44
2022-12-17T23:24:08.720Z,102615.25
2022-12-17T23:26:37.775Z,102621.13
2022-12-17T23:29:08.669Z,102620.94
2022-12-17T23:31:40.265Z,102627.59
2022-12-17T23:34:08.184Z,102621.50
2022-12-17T23:36:36.393Z,102622.22
2022-12-17T23:39:04.374Z,102623.84
2022-12-17T23:41:32.379Z,102616.13
2022-12-17T23:44:00.335Z,102616.00
2022-12-17T23:46:30.096Z,102620.25
2022-12-17T23:48:57.909Z,102604.78
2022-12-17T23:51:26.106Z,102608.94
2022-12-17T23:53:54.047Z,102605.47
2022-12-17T23:56:26.574Z,102601.22
2022-12-17T23:59:01.483Z,102600.34
